Time;durP1;ratioP1;P1;durP2;ratioP2;P2;SDS_P1;SDS_P2;PMS_P1;PMS_P2;Temp;Humidity;BMP_temperature;BMP_pressure;BME280_temperature;BME280_humidity;BME280_pressure;Samples;Min_cycle;Max_cycle;Signal;HPM_P1;HPM_P2
2022/04/25 04:14:27;;;;;;;;;;;;;;;10.56;86.98;96129.66;4259537;27;10157;-69
2022/04/25 04:16:29;;;;;;;;;;;;;;;10.62;86.66;96130.63;4231741;28;5689;-69
2022/04/25 04:18:31;;;;;;;;;;;;;;;10.68;86.15;96124.53;4231460;28;5684;-69
2022/04/25 04:20:33;;;;;;;;;;;;;;;10.72;85.87;96125.72;4232048;28;5692;-69
2022/04/25 04:22:36;;;;;;;;;;;;;;;10.75;85.61;96126.09;4231403;28;5675;-69
2022/04/25 04:24:38;;;;;;;;;;;;;;;10.75;85.72;96127.94;4231842;28;6011;-69
2022/04/25 04:26:39;;;;;;;;;;;;;;;10.75;85.66;96135.88;4231785;28;7265;-69
2022/04/25 04:28:41;;;;;;;;;;;;;;;10.75;85.39;96130.56;4220365;28;5635;-70
2022/04/25 04:30:44;;;;;;;;;;;;;;;10.77;85.35;96145.22;4220871;28;5704;-70
2022/04/25 04:32:46;;;;;;;;;;;;;;;10.80;85.23;96138.72;4217933;28;5804;-70
2022/04/25 04:34:48;;;;;;;;;;;;;;;10.82;85.65;96141.13;4240210;27;5760;-69
2022/04/25 04:36:51;;;;;;;;;;;;;;;10.80;85.58;96146.63;4226243;28;5667;-70
2022/04/25 04:38:52;;;;;;;;;;;;;;;10.80;85.52;96149.28;4225321;28;5632;-70
2022/04/25 04:40:54;;;;;;;;;;;;;;;10.81;85.85;96147.44;4218471;28;5761;-70
2022/04/25 04:42:56;;;;;;;;;;;;;;;10.81;85.60;96152.72;4230230;27;5652;-70
2022/04/25 04:44:58;;;;;;;;;;;;;;;10.79;85.89;96145.81;4214803;28;5787;-70
2022/04/25 04:46:59;;;;;;;;;;;;;;;10.83;85.73;96151.50;4217994;28;5660;-70
2022/04/25 04:49:01;;;;;;;;;;;;;;;10.86;85.52;96156.34;4225924;28;5693;-69
2022/04/25 04:51:03;;;;;;;;;;;;;;;10.84;85.75;96160.25;4216306;28;5786;-70
2022/04/25 04:53:04;;;;;;;;;;;;;;;10.84;85.94;96166.34;4230491;28;5826;-70
2022/04/25 04:55:06;;;;;;;;;;;;;;;10.85;86.01;96162.66;4216358;28;5090;-70
2022/04/25 04:57:08;;;;;;;;;;;;;;;10.77;86.79;96168.22;4229690;28;5726;-70
2022/04/25 04:59:10;;;;;;;;;;;;;;;10.82;85.93;96165.75;4230577;28;5782;-70
2022/04/25 05:01:12;;;;;;;;;;;;;;;10.85;86.01;96173.25;4214526;28;5696;-70
2022/04/25 05:03:15;;;;;;;;;;;;;;;10.84;85.70;96166.34;4214455;28;5685;-70
2022/04/25 05:05:18;;;;;;;;;;;;;;;10.85;85.79;96165.31;4214366;28;5094;-70
2022/04/25 05:07:20;;;;;;;;;;;;;;;10.86;85.94;96169.56;4205227;28;5616;-69
2022/04/25 05:09:22;;;;;;;;;;;;;;;10.88;85.82;96177.31;4214017;28;5709;-70
2022/04/25 05:11:23;;;;;;;;;;;;;;;10.88;86.18;96179.97;4217160;28;5631;-69
2022/04/25 05:13:25;;;;;;;;;;;;;;;10.87;86.40;96175.69;4219323;28;5742;-70
2022/04/25 05:15:26;;;;;;;;;;;;;;;10.84;86.40;96184.03;4203712;28;5845;-70
2022/04/25 05:17:28;;;;;;;;;;;;;;;10.84;86.26;96184.84;4210912;28;5766;-70
2022/04/25 05:19:30;;;;;;;;;;;;;;;10.85;86.29;96189.13;4204395;28;5626;-69
2022/04/25 05:21:32;;;;;;;;;;;;;;;10.88;86.07;96188.72;4210571;28;5798;-69
2022/04/25 05:23:34;;;;;;;;;;;;;;;10.87;85.78;96192.34;4208284;28;5700;-69
2022/04/25 05:25:38;;;;;;;;;;;;;;;10.88;85.79;96188.72;4206478;28;5693;-69
2022/04/25 05:27:41;;;;;;;;;;;;;;;10.87;86.04;96188.91;4215257;28;5830;-69
2022/04/25 05:29:43;;;;;;;;;;;;;;;10.85;86.22;96193.59;4202861;28;5696;-70
2022/04/25 05:31:44;;;;;;;;;;;;;;;10.75;86.94;96186.91;4212963;28;5756;-69
2022/04/25 05:33:49;;;;;;;;;;;;;;;10.75;86.75;96188.75;4205768;28;5793;-68
2022/04/25 05:35:52;;;;;;;;;;;;;;;10.77;86.96;96186.72;4217950;28;6376;-68
2022/04/25 05:37:54;;;;;;;;;;;;;;;10.77;87.00;96190.19;4207301;28;5697;-68
2022/04/25 05:39:56;;;;;;;;;;;;;;;10.72;87.26;96189.16;4217880;28;5834;-68
2022/04/25 05:41:58;;;;;;;;;;;;;;;10.70;87.42;96191.22;4213154;28;5893;-67
2022/04/25 05:44:00;;;;;;;;;;;;;;;10.60;88.13;96189.00;4202924;28;5731;-64
2022/04/25 05:46:01;;;;;;;;;;;;;;;10.64;87.74;96187.56;4208961;28;5688;-69
2022/04/25 05:51:58;;;;;;;;;;;;;;;10.71;87.74;96187.53;4207924;28;5664;-68
2022/04/25 05:52:48;;;;;;;;;;;;;;;10.72;88.09;96194.44;4211512;28;5914;-74
2022/04/25 05:54:50;;;;;;;;;;;;;;;10.69;88.17;96192.22;4209670;28;5671;-75
2022/04/25 05:56:52;;;;;;;;;;;;;;;10.63;88.21;96195.69;4215634;28;5679;-72
2022/04/25 05:58:54;;;;;;;;;;;;;;;10.45;89.53;96194.53;4218078;28;5925;-70
2022/04/25 06:00:55;;;;;;;;;;;;;;;10.61;88.19;96195.09;4214978;28;5881;-67
2022/04/25 06:02:58;;;;;;;;;;;;;;;10.64;89.05;96192.84;4212960;28;5679;-67
2022/04/25 06:05:00;;;;;;;;;;;;;;;10.68;87.99;96194.06;4213529;28;5889;-68
2022/04/25 06:07:04;;;;;;;;;;;;;;;10.71;87.61;96190.19;4206640;28;5671;-68
2022/04/25 06:09:06;;;;;;;;;;;;;;;10.74;87.74;96193.22;4215382;28;5815;-68
2022/04/25 06:11:08;;;;;;;;;;;;;;;10.72;88.54;96192.63;4202707;28;5830;-68
2022/04/25 06:13:09;;;;;;;;;;;;;;;10.69;89.01;96189.59;4220386;28;5774;-67
2022/04/25 06:15:11;;;;;;;;;;;;;;;10.68;87.80;96198.53;4204299;28;5799;-67
2022/04/25 06:17:13;;;;;;;;;;;;;;;10.78;87.42;96198.91;4198397;28;5874;-67
2022/04/25 06:19:16;;;;;;;;;;;;;;;10.79;87.36;96195.25;4210118;28;5769;-67
2022/04/25 06:21:20;;;;;;;;;;;;;;;10.79;87.44;96197.91;4211294;28;6531;-67
2022/04/25 06:23:22;;;;;;;;;;;;;;;10.76;87.42;96195.69;4213742;28;5734;-67
2022/04/25 06:25:26;;;;;;;;;;;;;;;10.74;87.18;96200.34;4199402;28;5779;-67
2022/04/25 06:27:28;;;;;;;;;;;;;;;10.74;87.08;96195.06;4198417;28;5796;-67
2022/04/25 06:29:29;;;;;;;;;;;;;;;10.75;86.92;96199.31;4202736;28;6274;-67
2022/04/25 06:31:32;;;;;;;;;;;;;;;10.75;86.98;96197.47;4215772;28;5903;-67
2022/04/25 06:33:33;;;;;;;;;;;;;;;10.73;86.79;96199.53;4206608;28;5944;-67
2022/04/25 06:35:36;;;;;;;;;;;;;;;10.66;87.54;96204.03;4209727;28;5817;-67
2022/04/25 06:37:37;;;;;;;;;;;;;;;10.61;88.37;96208.31;4198914;28;5787;-69
2022/04/25 06:39:44;;;;;;;;;;;;;;;10.64;88.31;96210.53;4203467;28;5874;-69
2022/04/25 06:41:46;;;;;;;;;;;;;;;10.61;88.26;96213.59;4209102;28;5796;-68
2022/04/25 06:43:48;;;;;;;;;;;;;;;10.63;88.75;96214.19;4215810;28;5876;-68
2022/04/25 06:45:55;;;;;;;;;;;;;;;10.61;88.52;96221.53;4209938;28;5858;-69
2022/04/25 06:47:57;;;;;;;;;;;;;;;10.49;89.21;96206.31;4223243;28;5741;-68
2022/04/25 06:49:58;;;;;;;;;;;;;;;10.50;89.08;96218.50;4206878;28;5708;-68
2022/04/25 06:52:01;;;;;;;;;;;;;;;10.54;88.93;96211.00;4210717;28;5773;-68
2022/04/25 06:54:06;;;;;;;;;;;;;;;10.52;88.56;96220.94;4212965;28;5813;-68
2022/04/25 06:56:08;;;;;;;;;;;;;;;10.44;89.06;96224.63;4206764;28;6436;-67
2022/04/25 06:58:09;;;;;;;;;;;;;;;10.53;88.44;96225.19;4215481;28;5754;-67
2022/04/25 07:00:12;;;;;;;;;;;;;;;10.59;88.21;96220.94;4198672;28;5791;-67
2022/04/25 07:02:35;;;;;;;;;;;;;;;10.46;90.35;96217.28;4198163;28;5802;-67
2022/04/25 07:04:39;;;;;;;;;;;;;;;10.54;89.22;96218.09;4198692;28;6528;-67
2022/04/25 07:06:41;;;;;;;;;;;;;;;10.53;88.92;96227.03;4214972;27;5781;-67
2022/04/25 07:08:43;;;;;;;;;;;;;;;10.52;88.96;96223.56;4212627;28;5770;-68
2022/04/25 07:10:44;;;;;;;;;;;;;;;10.54;88.65;96223.38;4208342;28;5837;-67
2022/04/25 07:12:47;;;;;;;;;;;;;;;10.59;88.73;96227.03;4214376;28;5774;-67
2022/04/25 07:14:49;;;;;;;;;;;;;;;10.61;88.71;96224.97;4211078;28;5779;-67
2022/04/25 07:16:54;;;;;;;;;;;;;;;10.60;88.84;96235.75;4208311;28;5781;-67
2022/04/25 07:18:57;;;;;;;;;;;;;;;10.61;88.61;96232.91;4210895;28;5758;-67
2022/04/25 07:20:59;;;;;;;;;;;;;;;10.53;89.87;96232.31;4199950;28;5931;-68
2022/04/25 07:30:06;;;;;;;;;;;;;;;10.57;89.80;96241.47;4197908;28;6679;-67
2022/04/25 07:32:08;;;;;;;;;;;;;;;10.58;89.63;96246.53;4200037;28;5722;-67
2022/04/25 07:34:10;;;;;;;;;;;;;;;10.57;89.75;96252.03;4198757;28;5779;-68
2022/04/25 07:36:14;;;;;;;;;;;;;;;10.56;90.79;96247.78;4209780;28;5096;-67
2022/04/25 07:38:20;;;;;;;;;;;;;;;10.58;90.03;96251.03;4198000;28;5795;-67
2022/04/25 07:40:23;;;;;;;;;;;;;;;10.69;89.11;96259.13;4208269;28;5770;-67
2022/04/25 07:42:24;;;;;;;;;;;;;;;10.73;89.36;96259.53;4214782;28;5703;-67
2022/04/25 07:44:27;;;;;;;;;;;;;;;10.56;90.61;96263.63;4214896;28;5765;-67
2022/04/25 07:46:30;;;;;;;;;;;;;;;10.66;89.92;96258.75;4214546;28;5754;-67
2022/04/25 07:48:34;;;;;;;;;;;;;;;10.70;89.49;96266.03;4200436;28;5784;-67
2022/04/25 07:50:36;;;;;;;;;;;;;;;10.74;89.02;96259.31;4204240;28;5825;-67
2022/04/25 07:52:38;;;;;;;;;;;;;;;10.48;91.16;96257.53;4213882;28;5769;-67
2022/04/25 07:54:40;;;;;;;;;;;;;;;10.64;90.07;96266.03;4206474;28;5874;-67
2022/04/25 07:56:44;;;;;;;;;;;;;;;10.63;90.58;96262.59;4204101;28;5860;-68
2022/04/25 07:58:46;;;;;;;;;;;;;;;10.61;90.69;96258.53;4200864;28;5777;-67
2022/04/25 08:00:48;;;;;;;;;;;;;;;10.69;90.80;96259.13;4213361;28;7226;-67
2022/04/25 08:02:50;;;;;;;;;;;;;;;10.41;91.73;96262.00;4205048;28;6469;-67
2022/04/25 08:04:52;;;;;;;;;;;;;;;10.65;90.53;96262.41;4194438;28;5749;-67
2022/04/25 08:06:54;;;;;;;;;;;;;;;10.75;89.81;96265.41;4214530;28;5844;-67
2022/04/25 08:08:56;;;;;;;;;;;;;;;10.81;89.70;96264.59;4197455;28;5785;-67
2022/04/25 08:10:58;;;;;;;;;;;;;;;10.86;89.26;96270.06;4197851;28;5788;-67
2022/04/25 08:20:01;;;;;;;;;;;;;;;10.90;89.15;96292.44;4212852;28;6257;-67
2022/04/25 08:22:07;;;;;;;;;;;;;;;10.87;89.38;96284.09;4211056;28;5746;-68
2022/04/25 08:24:09;;;;;;;;;;;;;;;10.93;89.33;96289.38;4200881;28;6036;-67
2022/04/25 08:26:12;;;;;;;;;;;;;;;10.81;90.52;96298.16;4210115;28;7791;-68
2022/04/25 08:28:14;;;;;;;;;;;;;;;10.83;90.16;96296.94;4225140;28;5811;-68
2022/04/25 08:30:17;;;;;;;;;;;;;;;10.89;89.20;96293.47;4200521;28;5821;-68
2022/04/25 08:32:19;;;;;;;;;;;;;;;10.94;89.31;96298.94;4205191;28;5834;-68
2022/04/25 08:34:23;;;;;;;;;;;;;;;11.02;89.12;96300.56;4201193;28;5758;-68
2022/04/25 08:36:25;;;;;;;;;;;;;;;10.87;89.81;96295.47;4208348;28;5745;-68
2022/04/25 08:38:27;;;;;;;;;;;;;;;10.87;89.84;96302.59;4200255;28;5865;-68
2022/04/25 08:40:28;;;;;;;;;;;;;;;10.84;90.37;96301.19;4213986;28;5774;-68
2022/04/25 08:42:35;;;;;;;;;;;;;;;10.67;91.56;96303.47;4205146;28;5847;-68
2022/04/25 08:44:54;;;;;;;;;;;;;;;10.78;91.12;96300.19;4204952;28;5846;-68
2022/04/25 08:46:58;;;;;;;;;;;;;;;10.79;90.97;96311.59;4199674;28;5977;-68
2022/04/25 08:49:03;;;;;;;;;;;;;;;10.74;91.28;96306.09;4201286;28;5794;-68
2022/04/25 08:51:08;;;;;;;;;;;;;;;10.58;91.64;96303.88;4208239;28;5879;-68
2022/04/25 08:53:12;;;;;;;;;;;;;;;10.53;91.54;96301.03;4206574;28;5759;-68
2022/04/25 08:55:16;;;;;;;;;;;;;;;10.69;90.45;96311.19;4214720;28;5809;-68
2022/04/25 08:57:20;;;;;;;;;;;;;;;10.49;90.63;96301.44;4217348;28;5156;-68
2022/04/25 08:59:23;;;;;;;;;;;;;;;10.61;88.98;96303.47;4208974;28;7703;-68
2022/04/25 09:01:25;;;;;;;;;;;;;;;10.57;89.68;96312.84;4201894;28;5764;-68
2022/04/25 09:03:27;;;;;;;;;;;;;;;10.77;88.44;96316.28;4215017;28;5770;-68
2022/04/25 09:05:29;;;;;;;;;;;;;;;10.81;88.42;96319.31;4217107;28;5762;-68
2022/04/25 09:07:31;;;;;;;;;;;;;;;10.83;89.12;96318.09;4214963;28;5682;-68
2022/04/25 09:09:33;;;;;;;;;;;;;;;11.01;88.15;96318.25;4202209;28;5791;-68
2022/04/25 09:13:56;;;;;;;;;;;;;;;11.15;87.23;96313.75;4203620;28;6519;-68
2022/04/25 09:15:58;;;;;;;;;;;;;;;11.22;87.02;96326.97;4206155;28;5782;-68
2022/04/25 09:18:00;;;;;;;;;;;;;;;11.26;86.55;96322.88;4216952;28;5777;-68
2022/04/25 09:20:02;;;;;;;;;;;;;;;11.33;86.65;96334.25;4205170;28;5823;-68
2022/04/25 09:22:06;;;;;;;;;;;;;;;11.35;86.47;96329.56;4212169;28;5727;-68
2022/04/25 09:24:26;;;;;;;;;;;;;;;11.35;85.80;96326.91;4200900;28;5796;-68
2022/04/25 09:26:28;;;;;;;;;;;;;;;11.29;86.22;96339.13;4213731;28;5802;-68
2022/04/25 09:28:34;;;;;;;;;;;;;;;11.30;86.09;96334.66;4214678;27;5867;-68
2022/04/25 09:30:36;;;;;;;;;;;;;;;11.29;86.43;96335.66;4207287;28;5799;-68
2022/04/25 09:32:37;;;;;;;;;;;;;;;11.30;86.01;96338.09;4214363;28;5790;-68
2022/04/25 09:37:00;;;;;;;;;;;;;;;11.18;86.69;96338.97;4216928;28;5774;-68
2022/04/25 09:39:02;;;;;;;;;;;;;;;10.97;87.40;96340.84;4215147;28;5888;-68
2022/04/25 09:41:06;;;;;;;;;;;;;;;11.13;87.11;96339.59;4207357;28;5749;-68
2022/04/25 09:43:14;;;;;;;;;;;;;;;11.13;87.59;96342.25;4201922;28;5783;-67
2022/04/25 09:45:19;;;;;;;;;;;;;;;11.08;86.55;96342.84;4212755;28;5785;-67
2022/04/25 09:47:39;;;;;;;;;;;;;;;11.28;86.43;96348.09;4203773;28;5948;-67
2022/04/25 09:49:41;;;;;;;;;;;;;;;11.36;84.89;96345.22;4206577;28;5747;-68
2022/04/25 09:51:58;;;;;;;;;;;;;;;11.47;84.95;96351.72;4226683;28;5675;-67
2022/04/25 09:54:01;;;;;;;;;;;;;;;11.53;84.15;96347.41;4206979;28;6490;-68
2022/04/25 09:56:12;;;;;;;;;;;;;;;11.55;84.47;96351.47;4204211;28;5796;-67
2022/04/25 09:58:20;;;;;;;;;;;;;;;11.58;84.74;96363.47;4212541;28;5786;-67
2022/04/25 10:00:25;;;;;;;;;;;;;;;11.61;84.81;96360.41;4210797;28;6786;-68
2022/04/25 10:02:26;;;;;;;;;;;;;;;11.60;84.73;96366.72;4207741;28;5919;-67
2022/04/25 10:04:36;;;;;;;;;;;;;;;11.60;84.71;96364.06;4213762;28;5801;-68
2022/04/25 10:06:38;;;;;;;;;;;;;;;11.59;84.75;96368.56;4216378;28;5769;-68
2022/04/25 10:08:41;;;;;;;;;;;;;;;11.53;84.67;96357.97;4200906;28;5796;-68
2022/04/25 10:10:47;;;;;;;;;;;;;;;11.48;84.71;96363.09;4199238;28;5225;-68
2022/04/25 10:12:52;;;;;;;;;;;;;;;11.22;85.02;96369.28;4209999;28;5408;-68
2022/04/25 10:14:54;;;;;;;;;;;;;;;11.27;85.54;96361.53;4213179;28;7817;-68
2022/04/25 10:16:58;;;;;;;;;;;;;;;11.49;84.96;96367.38;4201704;28;5122;-68
2022/04/25 10:19:00;;;;;;;;;;;;;;;11.60;84.63;96375.47;4201677;28;7771;-68
2022/04/25 10:21:04;;;;;;;;;;;;;;;11.57;84.92;96377.75;4212311;28;5766;-69
2022/04/25 10:23:11;;;;;;;;;;;;;;;11.68;84.79;96374.44;4202305;28;5783;-68
2022/04/25 10:25:13;;;;;;;;;;;;;;;11.74;84.15;96389.47;4213341;28;5778;-68
2022/04/25 10:27:17;;;;;;;;;;;;;;;11.67;83.36;96380.75;4215372;28;5849;-68
2022/04/25 10:29:26;;;;;;;;;;;;;;;11.71;83.42;96379.31;4224333;27;5812;-68
2022/04/25 10:31:31;;;;;;;;;;;;;;;11.62;83.72;96377.91;4199031;28;5788;-68
2022/04/25 10:33:58;;;;;;;;;;;;;;;11.54;83.21;96378.94;4197345;28;5820;-69
2022/04/25 10:35:59;;;;;;;;;;;;;;;11.56;83.78;96384.88;4203824;28;5782;-68
2022/04/25 10:38:01;;;;;;;;;;;;;;;11.74;83.44;96384.19;4199022;28;5803;-69
2022/04/25 10:40:06;;;;;;;;;;;;;;;11.82;82.70;96391.09;4199263;28;5745;-68
2022/04/25 10:44:27;;;;;;;;;;;;;;;11.62;81.88;96396.44;4202011;28;5818;-68
2022/04/25 10:47:13;;;;;;;;;;;;;;;11.56;82.98;96387.53;4212829;28;5770;-68
2022/04/25 10:49:27;;;;;;;;;;;;;;;11.73;82.64;96385.19;4215218;28;5839;-68
2022/04/25 10:51:38;;;;;;;;;;;;;;;11.85;83.15;96388.84;4212719;28;7718;-68
2022/04/25 10:54:02;;;;;;;;;;;;;;;11.79;83.99;96391.50;4203813;28;5803;-68
2022/04/25 10:56:08;;;;;;;;;;;;;;;11.84;83.15;96402.31;4198676;28;5780;-68
2022/04/25 10:58:11;;;;;;;;;;;;;;;11.86;82.31;96401.06;4215496;28;5782;-69
2022/04/25 11:00:44;;;;;;;;;;;;;;;11.90;81.92;96404.13;4213757;28;5766;-68
2022/04/25 11:03:25;;;;;;;;;;;;;;;11.83;81.35;96400.69;4190971;28;5730;-68
2022/04/25 11:05:42;;;;;;;;;;;;;;;11.74;82.17;96393.97;4212249;28;5723;-68
2022/04/25 11:07:44;;;;;;;;;;;;;;;11.74;82.36;96399.25;4204387;28;5885;-68
2022/04/25 11:09:47;;;;;;;;;;;;;;;11.73;82.33;96392.34;4205818;28;5779;-72
2022/04/25 11:11:53;;;;;;;;;;;;;;;11.73;81.66;96400.28;4212379;28;5813;-72
2022/04/25 11:14:01;;;;;;;;;;;;;;;11.62;82.11;96399.91;4212599;28;5955;-69
2022/04/25 11:16:16;;;;;;;;;;;;;;;11.58;82.94;96400.53;4205073;28;5775;-66
2022/04/25 11:18:34;;;;;;;;;;;;;;;11.59;82.20;96402.16;4214418;28;5766;-72
2022/04/25 11:20:59;;;;;;;;;;;;;;;11.61;82.52;96400.94;4213665;28;5766;-67
2022/04/25 11:23:26;;;;;;;;;;;;;;;11.68;83.08;96405.41;4218356;28;5777;-68
2022/04/25 11:25:29;;;;;;;;;;;;;;;11.67;83.16;96404.59;4198457;28;5783;-68
2022/04/25 11:27:59;;;;;;;;;;;;;;;11.76;83.04;96407.78;4209390;28;5726;-68
2022/04/25 11:30:15;;;;;;;;;;;;;;;11.80;83.11;96399.28;4213577;28;5758;-68
2022/04/25 11:32:32;;;;;;;;;;;;;;;11.80;83.32;96404.56;4214403;28;5810;-69
2022/04/25 11:34:34;;;;;;;;;;;;;;;11.79;83.08;96402.09;4213588;28;5770;-69
2022/04/25 11:36:41;;;;;;;;;;;;;;;11.71;83.13;96399.69;4206872;28;5791;-69
2022/04/25 11:41:07;;;;;;;;;;;;;;;11.63;83.59;96398.88;4210376;28;5818;-69
2022/04/25 11:43:09;;;;;;;;;;;;;;;11.69;84.04;96396.44;4214100;28;5782;-69
2022/04/25 11:45:11;;;;;;;;;;;;;;;11.71;83.48;96399.69;4202826;28;5113;-69
2022/04/25 11:47:13;;;;;;;;;;;;;;;11.69;83.65;96405.19;4214467;28;5831;-69
2022/04/25 11:49:27;;;;;;;;;;;;;;;11.80;83.57;96398.47;4209882;28;5830;-64
2022/04/25 11:51:31;;;;;;;;;;;;;;;11.93;83.97;96395.75;4206099;28;5802;-64
2022/04/25 11:53:34;;;;;;;;;;;;;;;12.01;82.96;96400.81;4201359;28;5873;-64
2022/04/25 11:55:36;;;;;;;;;;;;;;;12.16;82.38;96395.22;4208572;28;5721;-64
2022/04/25 11:57:39;;;;;;;;;;;;;;;12.21;81.26;96395.38;4209191;27;5817;-64
2022/04/25 11:59:42;;;;;;;;;;;;;;;12.21;81.24;96395.38;4214521;28;5774;-64
2022/04/25 12:01:47;;;;;;;;;;;;;;;12.26;81.84;96402.72;4211504;28;5654;-65
2022/04/25 12:03:49;;;;;;;;;;;;;;;12.26;82.85;96403.53;4213450;28;5781;-64
2022/04/25 12:05:51;;;;;;;;;;;;;;;12.36;81.92;96409.19;4204273;28;5822;-64
2022/04/25 12:17:08;;;;;;;;;;;;;;;12.60;80.63;96406.78;4206812;28;5475;-64
2022/04/25 12:19:11;;;;;;;;;;;;;;;12.45;80.33;96401.75;4207457;28;7738;-64
2022/04/25 12:21:14;;;;;;;;;;;;;;;12.53;79.90;96401.50;4214001;28;5763;-64
2022/04/25 12:23:25;;;;;;;;;;;;;;;12.59;79.82;96400.66;4212685;28;5723;-64
2022/04/25 12:25:30;;;;;;;;;;;;;;;12.62;80.19;96407.38;4215784;28;5915;-64
2022/04/25 12:27:33;;;;;;;;;;;;;;;12.61;80.96;96409.22;4217520;28;5773;-64
2022/04/25 12:29:34;;;;;;;;;;;;;;;12.72;80.18;96408.50;4213793;28;5818;-64
2022/04/25 12:31:46;;;;;;;;;;;;;;;12.71;79.54;96406.88;4216453;28;5789;-64
2022/04/25 12:33:50;;;;;;;;;;;;;;;12.68;78.32;96402.00;4211701;28;5809;-64
2022/04/25 12:36:16;;;;;;;;;;;;;;;12.67;78.41;96408.34;4210744;28;5931;-64
2022/04/25 12:38:42;;;;;;;;;;;;;;;12.61;78.92;96414.50;4215020;28;5916;-64
2022/04/25 12:40:55;;;;;;;;;;;;;;;12.54;78.23;96406.59;4215302;28;6656;-64
2022/04/25 12:42:57;;;;;;;;;;;;;;;12.45;78.90;96410.53;4215456;28;6371;-63
2022/04/25 12:44:59;;;;;;;;;;;;;;;12.24;79.63;96421.47;4217005;28;5777;-64
2022/04/25 12:47:04;;;;;;;;;;;;;;;12.39;78.92;96418.53;4216824;28;5766;-63
2022/04/25 12:49:17;;;;;;;;;;;;;;;12.37;79.02;96416.09;4212140;28;5786;-63
2022/04/25 12:51:30;;;;;;;;;;;;;;;12.41;78.80;96421.78;4216364;28;5817;-64
2022/04/25 12:53:39;;;;;;;;;;;;;;;12.36;78.76;96419.78;4215311;28;5734;-64
2022/04/25 12:55:46;;;;;;;;;;;;;;;12.38;78.56;96427.50;4216871;28;5757;-64
2022/04/25 12:57:51;;;;;;;;;;;;;;;12.32;78.86;96423.06;4216581;28;5861;-64
2022/04/25 13:00:00;;;;;;;;;;;;;;;12.30;78.52;96417.97;4213385;28;6495;-64
2022/04/25 13:02:10;;;;;;;;;;;;;;;12.29;78.90;96431.44;4213158;28;6590;-64
2022/04/25 13:04:16;;;;;;;;;;;;;;;12.27;80.08;96414.94;4211403;28;5781;-64
2022/04/25 13:06:21;;;;;;;;;;;;;;;12.24;78.83;96416.19;4212930;28;6648;-64
2022/04/25 13:08:23;;;;;;;;;;;;;;;12.26;77.83;96413.31;4216573;28;5763;-64
2022/04/25 13:10:25;;;;;;;;;;;;;;;12.33;78.66;96422.03;4216279;28;5742;-63
2022/04/25 13:12:36;;;;;;;;;;;;;;;12.31;79.39;96422.25;4214798;28;5849;-63
2022/04/25 13:14:39;;;;;;;;;;;;;;;12.20;80.09;96417.63;4209540;28;5715;-63
2022/04/25 13:16:41;;;;;;;;;;;;;;;12.16;81.09;96419.88;4214433;28;5773;-63
2022/04/25 13:18:43;;;;;;;;;;;;;;;12.18;80.84;96425.78;4213362;28;6101;-64
2022/04/25 13:20:45;;;;;;;;;;;;;;;12.14;80.79;96419.28;4221754;28;5654;-63
2022/04/25 13:22:48;;;;;;;;;;;;;;;12.12;80.88;96424.00;4218804;28;5754;-64
2022/04/25 13:24:50;;;;;;;;;;;;;;;12.06;80.91;96422.16;4216508;28;5881;-64
2022/04/25 13:26:52;;;;;;;;;;;;;;;12.05;81.30;96420.56;4219585;28;5754;-64
2022/04/25 13:28:54;;;;;;;;;;;;;;;12.02;80.88;96420.97;4223098;28;5751;-64
2022/04/25 13:30:56;;;;;;;;;;;;;;;11.91;81.54;96426.94;4218595;28;5668;-63
2022/04/25 13:32:58;;;;;;;;;;;;;;;11.91;81.48;96426.94;4219064;28;5747;-63
2022/04/25 13:35:00;;;;;;;;;;;;;;;12.03;81.22;96427.09;4218519;28;5680;-64
2022/04/25 13:37:02;;;;;;;;;;;;;;;12.09;80.53;96420.94;4210101;28;5829;-64
2022/04/25 13:39:04;;;;;;;;;;;;;;;12.10;80.25;96420.72;4219975;28;5675;-64
2022/04/25 13:41:06;;;;;;;;;;;;;;;12.14;80.79;96421.94;4220283;28;5176;-64
2022/04/25 13:43:11;;;;;;;;;;;;;;;12.05;80.50;96423.19;4211567;28;5792;-64
2022/04/25 13:45:13;;;;;;;;;;;;;;;11.99;80.89;96429.31;4212831;28;5867;-64
2022/04/25 13:47:14;;;;;;;;;;;;;;;11.99;80.69;96424.03;4216696;28;5869;-65
2022/04/25 13:49:16;;;;;;;;;;;;;;;11.98;81.15;96425.06;4218627;28;8404;-63
2022/04/25 13:51:18;;;;;;;;;;;;;;;12.01;80.94;96426.50;4215289;28;5870;-63
2022/04/25 13:53:20;;;;;;;;;;;;;;;11.98;80.95;96427.69;4209411;28;5904;-63
2022/04/25 13:55:21;;;;;;;;;;;;;;;11.92;80.86;96428.56;4203335;28;5110;-63
2022/04/25 13:57:23;;;;;;;;;;;;;;;11.91;81.21;96433.03;4208630;28;6563;-63
2022/04/25 13:59:25;;;;;;;;;;;;;;;11.94;80.81;96432.63;4207901;28;5795;-63
2022/04/25 14:01:27;;;;;;;;;;;;;;;11.99;80.70;96428.50;4209956;28;5737;-63
2022/04/25 14:03:29;;;;;;;;;;;;;;;12.05;80.56;96428.50;4209533;28;5842;-63
2022/04/25 14:05:37;;;;;;;;;;;;;;;12.08;80.37;96430.72;4206577;28;5777;-63
2022/04/25 14:07:38;;;;;;;;;;;;;;;12.10;80.48;96425.19;4216221;28;5782;-63
2022/04/25 14:09:39;;;;;;;;;;;;;;;12.11;80.01;96427.63;4198612;28;5753;-63
2022/04/25 14:11:41;;;;;;;;;;;;;;;12.12;80.33;96426.63;4213801;28;5773;-63
2022/04/25 14:13:43;;;;;;;;;;;;;;;12.08;80.78;96432.56;4214480;28;5770;-63
2022/04/25 14:15:46;;;;;;;;;;;;;;;12.08;80.71;96428.06;4209324;28;5746;-63
2022/04/25 14:17:47;;;;;;;;;;;;;;;12.14;80.79;96421.13;4216126;28;5781;-63
2022/04/25 14:19:49;;;;;;;;;;;;;;;12.07;80.61;96426.44;4209092;28;5782;-63
2022/04/25 14:21:50;;;;;;;;;;;;;;;12.07;80.26;96428.28;4199076;28;5787;-63
2022/04/25 14:23:52;;;;;;;;;;;;;;;12.05;80.22;96431.16;4200011;28;5799;-63
2022/04/25 14:25:55;;;;;;;;;;;;;;;11.93;80.62;96428.34;4210304;28;5754;-63
2022/04/25 14:27:59;;;;;;;;;;;;;;;11.94;80.81;96429.16;4210878;28;5795;-63
2022/04/25 14:30:01;;;;;;;;;;;;;;;11.98;81.17;96432.19;4199471;28;5834;-63
2022/04/25 14:32:03;;;;;;;;;;;;;;;11.94;81.59;96437.09;4200078;28;5791;-63
2022/04/25 14:34:05;;;;;;;;;;;;;;;11.87;82.06;96437.13;4208763;28;5847;-62
2022/04/25 14:36:06;;;;;;;;;;;;;;;11.80;82.55;96431.06;4230698;28;5692;-63
2022/04/25 14:38:08;;;;;;;;;;;;;;;11.79;83.40;96431.22;4206002;28;5821;-63
2022/04/25 14:40:10;;;;;;;;;;;;;;;11.73;85.16;96440.00;4215408;28;5860;-63
2022/04/25 14:42:12;;;;;;;;;;;;;;;11.72;84.67;96433.88;4207341;28;5708;-63
2022/04/25 14:44:14;;;;;;;;;;;;;;;11.68;84.67;96442.47;4205402;28;5727;-63
2022/04/25 14:46:15;;;;;;;;;;;;;;;11.65;84.87;96443.69;4206660;28;5734;-63
2022/04/25 14:48:17;;;;;;;;;;;;;;;11.58;85.21;96441.06;4198543;28;5844;-63
2022/04/25 14:55:05;;;;;;;;;;;;;;;11.61;84.84;96443.28;4163462;28;5680;-63
2022/04/25 14:57:07;;;;;;;;;;;;;;;11.61;84.90;96438.00;4161214;28;5683;-63
2022/04/25 14:59:09;;;;;;;;;;;;;;;11.64;83.54;96448.16;4159747;28;6862;-63
2022/04/25 15:01:10;;;;;;;;;;;;;;;11.64;83.89;96453.47;4161539;28;5696;-62
2022/04/25 15:03:12;;;;;;;;;;;;;;;11.68;83.47;96451.22;4160697;28;5699;-62
2022/04/25 15:05:16;;;;;;;;;;;;;;;11.64;83.19;96450.81;4161757;28;5727;-62
2022/04/25 15:07:18;;;;;;;;;;;;;;;11.65;83.17;96455.09;4160997;28;5700;-62
2022/04/25 15:09:21;;;;;;;;;;;;;;;11.66;83.02;96453.25;4162760;28;5825;-62
2022/04/25 15:11:22;;;;;;;;;;;;;;;11.66;83.00;96459.38;4162839;28;5821;-63
2022/04/25 15:13:24;;;;;;;;;;;;;;;11.69;83.36;96459.97;4157848;28;5703;-62
2022/04/25 15:15:26;;;;;;;;;;;;;;;11.76;83.30;96460.75;4154504;28;5685;-62
2022/04/25 15:17:28;;;;;;;;;;;;;;;11.82;82.17;96455.47;4163104;28;5717;-62
2022/04/25 15:19:29;;;;;;;;;;;;;;;11.85;82.44;96448.94;4161519;28;5707;-62
2022/04/25 15:21:31;;;;;;;;;;;;;;;11.83;81.67;96456.31;4161927;28;5684;-63
2022/04/25 15:23:33;;;;;;;;;;;;;;;11.70;82.85;96459.78;4160166;28;5692;-65
2022/04/25 15:25:35;;;;;;;;;;;;;;;11.87;82.61;96458.31;4142863;28;5803;-62
2022/04/25 15:27:36;;;;;;;;;;;;;;;11.93;82.20;96456.69;4161042;28;5605;-62
2022/04/25 15:29:40;;;;;;;;;;;;;;;11.83;82.22;96461.59;4162404;28;5866;-63
2022/04/25 15:31:42;;;;;;;;;;;;;;;11.91;81.54;96459.53;4167405;28;5810;-64
2022/04/25 15:33:44;;;;;;;;;;;;;;;11.91;81.62;96454.25;4202354;28;5770;-63
2022/04/25 15:35:47;;;;;;;;;;;;;;;11.92;81.60;96455.06;4211732;28;5849;-63
2022/04/25 15:37:49;;;;;;;;;;;;;;;11.83;82.13;96457.09;4209756;28;5762;-63
2022/04/25 15:39:50;;;;;;;;;;;;;;;11.91;82.13;96450.78;4212610;28;5928;-63
2022/04/25 15:41:52;;;;;;;;;;;;;;;11.82;82.29;96452.03;4198676;28;7409;-63
2022/04/25 15:43:54;;;;;;;;;;;;;;;11.80;82.17;96451.44;4198145;28;5811;-63
2022/04/25 15:45:56;;;;;;;;;;;;;;;11.89;81.82;96452.78;4198031;28;5798;-63
2022/04/25 15:47:59;;;;;;;;;;;;;;;11.94;81.26;96456.47;4198060;28;5787;-63
2022/04/25 15:50:01;;;;;;;;;;;;;;;11.99;81.49;96449.72;4197621;28;5780;-63